sensor_id;sensor_type;location;lat;lon;timestamp;temperature;humidity
12839;DHT22;6486;51.034;5.262;2022-09-13T00:00:52;20.60;65.90
12839;DHT22;6486;51.034;5.262;2022-09-13T00:03:18;20.60;65.80
12839;DHT22;6486;51.034;5.262;2022-09-13T00:05:44;20.60;65.80
12839;DHT22;6486;51.034;5.262;2022-09-13T00:08:11;20.60;65.80
12839;DHT22;6486;51.034;5.262;2022-09-13T00:10:38;20.60;65.80
12839;DHT22;6486;51.034;5.262;2022-09-13T00:13:06;20.60;65.70
12839;DHT22;6486;51.034;5.262;2022-09-13T00:15:32;20.60;65.70
12839;DHT22;6486;51.034;5.262;2022-09-13T00:17:58;20.60;65.60
12839;DHT22;6486;51.034;5.262;2022-09-13T00:20:24;20.60;65.50
12839;DHT22;6486;51.034;5.262;2022-09-13T00:22:49;20.60;65.40
12839;DHT22;6486;51.034;5.262;2022-09-13T00:25:15;20.60;65.40
12839;DHT22;6486;51.034;5.262;2022-09-13T00:27:41;20.60;65.30
12839;DHT22;6486;51.034;5.262;2022-09-13T00:30:09;20.60;65.40
12839;DHT22;6486;51.034;5.262;2022-09-13T00:32:35;20.50;65.20
12839;DHT22;6486;51.034;5.262;2022-09-13T00:35:02;20.50;65.30
12839;DHT22;6486;51.034;5.262;2022-09-13T00:37:28;20.50;65.30
12839;DHT22;6486;51.034;5.262;2022-09-13T00:39:53;20.50;65.30
12839;DHT22;6486;51.034;5.262;2022-09-13T00:42:24;20.40;65.30
12839;DHT22;6486;51.034;5.262;2022-09-13T00:50:24;20.30;65.90
12839;DHT22;6486;51.034;5.262;2022-09-13T00:52:56;20.30;66.20
12839;DHT22;6486;51.034;5.262;2022-09-13T00:55:34;20.20;66.10
12839;DHT22;6486;51.034;5.262;2022-09-13T00:58:06;20.20;66.30
12839;DHT22;6486;51.034;5.262;2022-09-13T01:00:33;20.20;66.40
12839;DHT22;6486;51.034;5.262;2022-09-13T01:03:02;20.10;66.40
12839;DHT22;6486;51.034;5.262;2022-09-13T01:05:36;20.10;66.50
12839;DHT22;6486;51.034;5.262;2022-09-13T01:08:05;20.10;66.60
12839;DHT22;6486;51.034;5.262;2022-09-13T01:10:41;20.00;66.60
12839;DHT22;6486;51.034;5.262;2022-09-13T01:13:22;20.00;66.60
12839;DHT22;6486;51.034;5.262;2022-09-13T01:15:48;20.00;66.70
12839;DHT22;6486;51.034;5.262;2022-09-13T01:18:14;20.00;66.60
12839;DHT22;6486;51.034;5.262;2022-09-13T01:40:28;20.00;67.00
12839;DHT22;6486;51.034;5.262;2022-09-13T01:48:33;20.00;67.10
12839;DHT22;6486;51.034;5.262;2022-09-13T01:51:12;20.00;67.10
12839;DHT22;6486;51.034;5.262;2022-09-13T01:53:54;20.00;67.20
12839;DHT22;6486;51.034;5.262;2022-09-13T01:56:27;20.00;67.30
12839;DHT22;6486;51.034;5.262;2022-09-13T01:59:02;20.00;67.20
12839;DHT22;6486;51.034;5.262;2022-09-13T02:04:10;19.90;67.30
12839;DHT22;6486;51.034;5.262;2022-09-13T02:07:00;19.90;67.40
12839;DHT22;6486;51.034;5.262;2022-09-13T02:09:31;19.90;67.50
12839;DHT22;6486;51.034;5.262;2022-09-13T02:12:20;19.90;67.60
12839;DHT22;6486;51.034;5.262;2022-09-13T02:15:03;19.90;67.70
12839;DHT22;6486;51.034;5.262;2022-09-13T02:17:38;19.90;67.70
12839;DHT22;6486;51.034;5.262;2022-09-13T02:20:17;19.90;67.70
12839;DHT22;6486;51.034;5.262;2022-09-13T02:22:48;19.90;67.90
12839;DHT22;6486;51.034;5.262;2022-09-13T02:25:17;19.90;68.00
12839;DHT22;6486;51.034;5.262;2022-09-13T02:27:46;19.80;68.00
12839;DHT22;6486;51.034;5.262;2022-09-13T02:30:13;19.80;68.00
12839;DHT22;6486;51.034;5.262;2022-09-13T02:32:49;19.80;68.10
12839;DHT22;6486;51.034;5.262;2022-09-13T02:35:31;19.80;68.30
12839;DHT22;6486;51.034;5.262;2022-09-13T02:38:16;19.70;68.40
12839;DHT22;6486;51.034;5.262;2022-09-13T02:40:48;19.80;68.40
12839;DHT22;6486;51.034;5.262;2022-09-13T02:43:26;19.80;68.40
12839;DHT22;6486;51.034;5.262;2022-09-13T02:48:35;19.70;68.40
12839;DHT22;6486;51.034;5.262;2022-09-13T02:51:11;19.70;68.40
12839;DHT22;6486;51.034;5.262;2022-09-13T02:53:56;19.70;68.50
12839;DHT22;6486;51.034;5.262;2022-09-13T02:56:58;19.70;68.60
12839;DHT22;6486;51.034;5.262;2022-09-13T02:59:26;19.70;68.70
12839;DHT22;6486;51.034;5.262;2022-09-13T03:02:12;19.70;68.70
12839;DHT22;6486;51.034;5.262;2022-09-13T03:04:39;19.70;68.80
12839;DHT22;6486;51.034;5.262;2022-09-13T03:07:11;19.60;68.70
12839;DHT22;6486;51.034;5.262;2022-09-13T03:10:02;19.70;68.90
12839;DHT22;6486;51.034;5.262;2022-09-13T03:12:38;19.60;68.90
12839;DHT22;6486;51.034;5.262;2022-09-13T03:24:17;19.60;69.00
12839;DHT22;6486;51.034;5.262;2022-09-13T03:30:07;19.50;69.20
12839;DHT22;6486;51.034;5.262;2022-09-13T03:35:36;19.50;69.20
12839;DHT22;6486;51.034;5.262;2022-09-13T03:38:08;19.50;69.20
12839;DHT22;6486;51.034;5.262;2022-09-13T03:40:52;19.50;69.20
12839;DHT22;6486;51.034;5.262;2022-09-13T03:43:25;19.50;69.20
12839;DHT22;6486;51.034;5.262;2022-09-13T03:46:03;19.50;69.20
12839;DHT22;6486;51.034;5.262;2022-09-13T03:48:31;19.50;69.20
12839;DHT22;6486;51.034;5.262;2022-09-13T03:51:00;19.50;69.20
12839;DHT22;6486;51.034;5.262;2022-09-13T03:53:27;19.50;69.20
12839;DHT22;6486;51.034;5.262;2022-09-13T03:55:53;19.60;69.20
12839;DHT22;6486;51.034;5.262;2022-09-13T03:58:20;19.60;69.20
12839;DHT22;6486;51.034;5.262;2022-09-13T04:00:46;19.60;69.30
12839;DHT22;6486;51.034;5.262;2022-09-13T04:03:12;19.60;69.30
12839;DHT22;6486;51.034;5.262;2022-09-13T04:05:38;19.60;69.40
12839;DHT22;6486;51.034;5.262;2022-09-13T04:08:05;19.60;70.10
12839;DHT22;6486;51.034;5.262;2022-09-13T04:10:32;19.60;69.50
12839;DHT22;6486;51.034;5.262;2022-09-13T04:12:58;19.60;69.50
12839;DHT22;6486;51.034;5.262;2022-09-13T04:15:25;19.60;69.50
12839;DHT22;6486;51.034;5.262;2022-09-13T04:17:51;19.60;69.50
12839;DHT22;6486;51.034;5.262;2022-09-13T04:20:17;19.60;69.50
12839;DHT22;6486;51.034;5.262;2022-09-13T04:22:43;19.60;69.40
12839;DHT22;6486;51.034;5.262;2022-09-13T04:25:14;19.60;69.40
12839;DHT22;6486;51.034;5.262;2022-09-13T04:27:40;19.60;69.50
12839;DHT22;6486;51.034;5.262;2022-09-13T04:30:06;19.70;69.60
12839;DHT22;6486;51.034;5.262;2022-09-13T04:32:32;19.70;69.60
12839;DHT22;6486;51.034;5.262;2022-09-13T04:34:58;19.70;69.50
12839;DHT22;6486;51.034;5.262;2022-09-13T04:37:23;19.60;69.40
12839;DHT22;6486;51.034;5.262;2022-09-13T04:39:49;19.70;69.60
12839;DHT22;6486;51.034;5.262;2022-09-13T04:42:14;19.70;69.60
12839;DHT22;6486;51.034;5.262;2022-09-13T04:44:40;19.60;69.50
12839;DHT22;6486;51.034;5.262;2022-09-13T04:47:05;19.60;69.60
12839;DHT22;6486;51.034;5.262;2022-09-13T04:49:32;19.60;69.60
12839;DHT22;6486;51.034;5.262;2022-09-13T04:51:58;19.60;69.70
12839;DHT22;6486;51.034;5.262;2022-09-13T04:54:23;19.60;69.80
12839;DHT22;6486;51.034;5.262;2022-09-13T04:56:49;19.60;69.70
12839;DHT22;6486;51.034;5.262;2022-09-13T04:59:15;19.60;69.80
12839;DHT22;6486;51.034;5.262;2022-09-13T05:01:41;19.60;69.80
12839;DHT22;6486;51.034;5.262;2022-09-13T05:04:07;19.60;69.80
12839;DHT22;6486;51.034;5.262;2022-09-13T05:06:34;19.50;69.80
12839;DHT22;6486;51.034;5.262;2022-09-13T05:09:00;19.50;69.90
12839;DHT22;6486;51.034;5.262;2022-09-13T05:11:27;19.50;70.00
12839;DHT22;6486;51.034;5.262;2022-09-13T05:13:55;19.50;70.00
12839;DHT22;6486;51.034;5.262;2022-09-13T05:16:22;19.50;70.10
12839;DHT22;6486;51.034;5.262;2022-09-13T05:18:48;19.50;70.10
12839;DHT22;6486;51.034;5.262;2022-09-13T05:21:14;19.50;70.20
12839;DHT22;6486;51.034;5.262;2022-09-13T05:23:39;19.50;70.20
12839;DHT22;6486;51.034;5.262;2022-09-13T05:26:05;19.50;70.30
12839;DHT22;6486;51.034;5.262;2022-09-13T05:28:33;19.40;70.30
12839;DHT22;6486;51.034;5.262;2022-09-13T05:33:28;19.50;70.50
12839;DHT22;6486;51.034;5.262;2022-09-13T05:35:54;19.40;70.40
12839;DHT22;6486;51.034;5.262;2022-09-13T05:38:20;19.40;70.50
12839;DHT22;6486;51.034;5.262;2022-09-13T05:40:47;19.40;70.50
12839;DHT22;6486;51.034;5.262;2022-09-13T05:43:13;19.40;70.60
12839;DHT22;6486;51.034;5.262;2022-09-13T05:45:39;19.40;70.80
12839;DHT22;6486;51.034;5.262;2022-09-13T05:48:05;19.40;70.90
12839;DHT22;6486;51.034;5.262;2022-09-13T05:50:31;19.40;70.90
12839;DHT22;6486;51.034;5.262;2022-09-13T05:52:57;19.40;71.60
12839;DHT22;6486;51.034;5.262;2022-09-13T05:55:22;19.40;71.00
12839;DHT22;6486;51.034;5.262;2022-09-13T05:57:49;19.40;70.90
12839;DHT22;6486;51.034;5.262;2022-09-13T06:00:15;19.40;71.00
12839;DHT22;6486;51.034;5.262;2022-09-13T06:02:41;19.40;71.00
12839;DHT22;6486;51.034;5.262;2022-09-13T06:05:08;19.50;71.00
12839;DHT22;6486;51.034;5.262;2022-09-13T06:07:35;19.50;71.00
12839;DHT22;6486;51.034;5.262;2022-09-13T06:10:01;19.50;70.90
12839;DHT22;6486;51.034;5.262;2022-09-13T06:12:27;19.60;70.90
12839;DHT22;6486;51.034;5.262;2022-09-13T06:14:52;19.60;70.80
12839;DHT22;6486;51.034;5.262;2022-09-13T06:17:18;19.60;70.80
12839;DHT22;6486;51.034;5.262;2022-09-13T06:19:43;19.60;70.80
12839;DHT22;6486;51.034;5.262;2022-09-13T06:22:09;19.70;71.00
12839;DHT22;6486;51.034;5.262;2022-09-13T06:24:35;19.70;71.00
12839;DHT22;6486;51.034;5.262;2022-09-13T06:27:02;19.70;70.90
12839;DHT22;6486;51.034;5.262;2022-09-13T06:29:27;19.70;70.70
12839;DHT22;6486;51.034;5.262;2022-09-13T06:31:53;19.70;70.70
12839;DHT22;6486;51.034;5.262;2022-09-13T06:34:19;19.70;71.40
12839;DHT22;6486;51.034;5.262;2022-09-13T06:36:44;19.70;70.60
12839;DHT22;6486;51.034;5.262;2022-09-13T06:39:10;19.80;70.60
12839;DHT22;6486;51.034;5.262;2022-09-13T06:41:36;19.80;70.50
12839;DHT22;6486;51.034;5.262;2022-09-13T06:44:02;19.80;70.60
12839;DHT22;6486;51.034;5.262;2022-09-13T06:46:30;19.80;70.70
12839;DHT22;6486;51.034;5.262;2022-09-13T06:49:04;19.90;70.80
12839;DHT22;6486;51.034;5.262;2022-09-13T06:51:31;19.90;70.80
12839;DHT22;6486;51.034;5.262;2022-09-13T06:53:57;20.00;70.90
12839;DHT22;6486;51.034;5.262;2022-09-13T06:56:28;20.00;70.90
12839;DHT22;6486;51.034;5.262;2022-09-13T06:58:56;20.10;70.90
12839;DHT22;6486;51.034;5.262;2022-09-13T07:01:30;20.10;70.70
12839;DHT22;6486;51.034;5.262;2022-09-13T07:06:29;20.20;70.50
12839;DHT22;6486;51.034;5.262;2022-09-13T07:08:56;20.30;70.50
12839;DHT22;6486;51.034;5.262;2022-09-13T07:11:25;20.40;70.50
12839;DHT22;6486;51.034;5.262;2022-09-13T07:13:55;20.40;70.40
12839;DHT22;6486;51.034;5.262;2022-09-13T07:16:23;20.50;70.30
12839;DHT22;6486;51.034;5.262;2022-09-13T07:18:57;20.60;70.20
12839;DHT22;6486;51.034;5.262;2022-09-13T07:21:24;20.60;70.70
12839;DHT22;6486;51.034;5.262;2022-09-13T07:23:52;20.60;69.80
12839;DHT22;6486;51.034;5.262;2022-09-13T07:26:18;20.70;70.50
12839;DHT22;6486;51.034;5.262;2022-09-13T07:28:45;20.80;69.80
12839;DHT22;6486;51.034;5.262;2022-09-13T07:31:19;20.90;69.60
12839;DHT22;6486;51.034;5.262;2022-09-13T07:33:47;21.00;69.40
12839;DHT22;6486;51.034;5.262;2022-09-13T07:36:13;21.10;69.40
12839;DHT22;6486;51.034;5.262;2022-09-13T07:38:41;21.20;69.40
12839;DHT22;6486;51.034;5.262;2022-09-13T07:41:11;21.30;69.20
12839;DHT22;6486;51.034;5.262;2022-09-13T07:43:37;21.50;69.20
12839;DHT22;6486;51.034;5.262;2022-09-13T07:46:09;21.60;69.10
12839;DHT22;6486;51.034;5.262;2022-09-13T07:48:37;21.70;68.80
12839;DHT22;6486;51.034;5.262;2022-09-13T07:51:14;21.70;68.60
12839;DHT22;6486;51.034;5.262;2022-09-13T07:53:41;21.90;68.60
12839;DHT22;6486;51.034;5.262;2022-09-13T07:56:10;22.00;68.40
12839;DHT22;6486;51.034;5.262;2022-09-13T07:58:36;22.10;68.20
12839;DHT22;6486;51.034;5.262;2022-09-13T08:01:24;22.10;68.00
12839;DHT22;6486;51.034;5.262;2022-09-13T08:03:55;22.20;67.90
12839;DHT22;6486;51.034;5.262;2022-09-13T08:06:22;22.30;67.90
12839;DHT22;6486;51.034;5.262;2022-09-13T08:08:48;22.50;67.70
12839;DHT22;6486;51.034;5.262;2022-09-13T08:11:17;22.60;67.50
12839;DHT22;6486;51.034;5.262;2022-09-13T08:13:48;22.60;67.30
12839;DHT22;6486;51.034;5.262;2022-09-13T08:16:15;22.60;67.00
12839;DHT22;6486;51.034;5.262;2022-09-13T08:18:45;22.70;66.90
12839;DHT22;6486;51.034;5.262;2022-09-13T08:21:11;22.80;66.60
12839;DHT22;6486;51.034;5.262;2022-09-13T08:23:36;22.80;66.30
12839;DHT22;6486;51.034;5.262;2022-09-13T08:26:02;22.90;66.30
12839;DHT22;6486;51.034;5.262;2022-09-13T08:28:29;23.00;66.30
12839;DHT22;6486;51.034;5.262;2022-09-13T08:31:01;23.00;66.10
12839;DHT22;6486;51.034;5.262;2022-09-13T08:33:26;23.10;66.10
12839;DHT22;6486;51.034;5.262;2022-09-13T08:35:52;23.20;66.10
12839;DHT22;6486;51.034;5.262;2022-09-13T08:38:20;23.30;65.80
12839;DHT22;6486;51.034;5.262;2022-09-13T08:43:50;23.60;65.10
12839;DHT22;6486;51.034;5.262;2022-09-13T08:46:40;23.70;64.70
12839;DHT22;6486;51.034;5.262;2022-09-13T08:49:19;23.90;64.40
12839;DHT22;6486;51.034;5.262;2022-09-13T08:51:47;24.10;64.30
12839;DHT22;6486;51.034;5.262;2022-09-13T08:54:16;24.30;64.10
12839;DHT22;6486;51.034;5.262;2022-09-13T08:59:48;24.60;63.60
12839;DHT22;6486;51.034;5.262;2022-09-13T09:02:33;24.80;63.00
12839;DHT22;6486;51.034;5.262;2022-09-13T09:10:34;25.10;61.90
12839;DHT22;6486;51.034;5.262;2022-09-13T09:15:49;25.10;61.30
12839;DHT22;6486;51.034;5.262;2022-09-13T09:18:35;25.20;61.30
12839;DHT22;6486;51.034;5.262;2022-09-13T09:21:02;25.40;61.20
12839;DHT22;6486;51.034;5.262;2022-09-13T09:28:42;25.70;60.30
12839;DHT22;6486;51.034;5.262;2022-09-13T09:31:15;25.80;60.30
12839;DHT22;6486;51.034;5.262;2022-09-13T09:33:59;25.80;59.90
12839;DHT22;6486;51.034;5.262;2022-09-13T09:36:35;25.90;59.80
12839;DHT22;6486;51.034;5.262;2022-09-13T09:39:03;26.00;59.90
12839;DHT22;6486;51.034;5.262;2022-09-13T09:41:33;26.10;59.80
12839;DHT22;6486;51.034;5.262;2022-09-13T09:46:39;26.20;59.30
12839;DHT22;6486;51.034;5.262;2022-09-13T09:49:20;26.30;59.20
12839;DHT22;6486;51.034;5.262;2022-09-13T09:52:09;26.20;58.90
12839;DHT22;6486;51.034;5.262;2022-09-13T09:54:35;26.10;59.00
12839;DHT22;6486;51.034;5.262;2022-09-13T09:57:03;26.00;58.80
12839;DHT22;6486;51.034;5.262;2022-09-13T09:59:32;26.10;58.90
12839;DHT22;6486;51.034;5.262;2022-09-13T10:01:59;26.20;58.70
12839;DHT22;6486;51.034;5.262;2022-09-13T10:04:27;26.30;58.50
12839;DHT22;6486;51.034;5.262;2022-09-13T10:07:19;26.40;58.70
12839;DHT22;6486;51.034;5.262;2022-09-13T10:10:07;26.40;58.40
12839;DHT22;6486;51.034;5.262;2022-09-13T10:12:48;26.50;58.40
12839;DHT22;6486;51.034;5.262;2022-09-13T10:15:18;26.50;58.90
12839;DHT22;6486;51.034;5.262;2022-09-13T10:18:14;26.60;58.20
12839;DHT22;6486;51.034;5.262;2022-09-13T10:20:41;26.60;58.00
12839;DHT22;6486;51.034;5.262;2022-09-13T10:25:39;26.60;58.00
12839;DHT22;6486;51.034;5.262;2022-09-13T10:28:14;26.60;58.60
12839;DHT22;6486;51.034;5.262;2022-09-13T10:30:45;26.60;58.00
12839;DHT22;6486;51.034;5.262;2022-09-13T10:33:45;26.70;57.90
12839;DHT22;6486;51.034;5.262;2022-09-13T10:36:27;26.80;58.30
12839;DHT22;6486;51.034;5.262;2022-09-13T10:38:59;27.10;57.30
12839;DHT22;6486;51.034;5.262;2022-09-13T10:41:28;27.20;57.10
12839;DHT22;6486;51.034;5.262;2022-09-13T10:44:02;27.30;56.90
12839;DHT22;6486;51.034;5.262;2022-09-13T10:46:31;27.40;56.30
12839;DHT22;6486;51.034;5.262;2022-09-13T10:48:58;27.50;56.10
12839;DHT22;6486;51.034;5.262;2022-09-13T10:54:24;27.60;55.80
12839;DHT22;6486;51.034;5.262;2022-09-13T10:56:51;27.60;55.70
12839;DHT22;6486;51.034;5.262;2022-09-13T10:59:22;27.90;55.40
12839;DHT22;6486;51.034;5.262;2022-09-13T11:10:20;28.10;55.40
12839;DHT22;6486;51.034;5.262;2022-09-13T11:15:28;28.10;55.30
12839;DHT22;6486;51.034;5.262;2022-09-13T11:34:15;28.20;54.20
12839;DHT22;6486;51.034;5.262;2022-09-13T11:37:23;28.50;54.00
12839;DHT22;6486;51.034;5.262;2022-09-13T11:40:02;28.60;53.90
12839;DHT22;6486;51.034;5.262;2022-09-13T11:42:55;28.70;53.90
12839;DHT22;6486;51.034;5.262;2022-09-13T11:46:29;28.60;53.50
12839;DHT22;6486;51.034;5.262;2022-09-13T11:56:51;28.30;53.50
12839;DHT22;6486;51.034;5.262;2022-09-13T12:05:04;28.60;53.40
12839;DHT22;6486;51.034;5.262;2022-09-13T12:07:44;28.80;53.00
12839;DHT22;6486;51.034;5.262;2022-09-13T12:12:53;29.10;52.50
12839;DHT22;6486;51.034;5.262;2022-09-13T12:15:31;29.10;52.50
12839;DHT22;6486;51.034;5.262;2022-09-13T12:18:09;29.00;52.40
12839;DHT22;6486;51.034;5.262;2022-09-13T12:20:44;29.00;52.30
12839;DHT22;6486;51.034;5.262;2022-09-13T12:23:18;29.20;51.90
12839;DHT22;6486;51.034;5.262;2022-09-13T12:26:04;29.50;51.60
12839;DHT22;6486;51.034;5.262;2022-09-13T12:28:43;29.70;51.00
12839;DHT22;6486;51.034;5.262;2022-09-13T12:31:14;29.90;50.60
12839;DHT22;6486;51.034;5.262;2022-09-13T12:33:42;30.00;50.40
12839;DHT22;6486;51.034;5.262;2022-09-13T12:37:09;30.10;49.90
12839;DHT22;6486;51.034;5.262;2022-09-13T12:48:14;30.30;49.60
12839;DHT22;6486;51.034;5.262;2022-09-13T12:51:05;30.10;49.50
12839;DHT22;6486;51.034;5.262;2022-09-13T12:59:24;29.60;50.10
12839;DHT22;6486;51.034;5.262;2022-09-13T13:01:53;29.60;50.30
12839;DHT22;6486;51.034;5.262;2022-09-13T13:04:29;29.70;50.20
12839;DHT22;6486;51.034;5.262;2022-09-13T13:07:05;29.80;50.10
12839;DHT22;6486;51.034;5.262;2022-09-13T13:09:50;29.80;50.10
12839;DHT22;6486;51.034;5.262;2022-09-13T13:12:38;29.80;50.00
12839;DHT22;6486;51.034;5.262;2022-09-13T13:17:55;29.70;49.10
12839;DHT22;6486;51.034;5.262;2022-09-13T13:26:42;29.60;49.30
12839;DHT22;6486;51.034;5.262;2022-09-13T13:29:21;29.40;49.00
12839;DHT22;6486;51.034;5.262;2022-09-13T13:36:49;29.20;49.30
12839;DHT22;6486;51.034;5.262;2022-09-13T13:46:44;29.00;50.00
12839;DHT22;6486;51.034;5.262;2022-09-13T13:58:09;28.60;50.50
12839;DHT22;6486;51.034;5.262;2022-09-13T14:00:20;28.50;50.90
12839;DHT22;6486;51.034;5.262;2022-09-13T14:02:53;28.30;51.20
12839;DHT22;6486;51.034;5.262;2022-09-13T14:11:12;27.80;53.60
12839;DHT22;6486;51.034;5.262;2022-09-13T14:19:52;27.30;56.30
12839;DHT22;6486;51.034;5.262;2022-09-13T14:22:24;27.20;56.90
12839;DHT22;6486;51.034;5.262;2022-09-13T14:24:52;27.00;57.50
12839;DHT22;6486;51.034;5.262;2022-09-13T14:27:29;26.90;58.00
12839;DHT22;6486;51.034;5.262;2022-09-13T14:29:58;26.80;58.60
12839;DHT22;6486;51.034;5.262;2022-09-13T14:32:29;26.70;58.90
12839;DHT22;6486;51.034;5.262;2022-09-13T14:35:02;26.60;59.30
12839;DHT22;6486;51.034;5.262;2022-09-13T14:37:34;26.50;59.60
12839;DHT22;6486;51.034;5.262;2022-09-13T14:40:24;26.40;60.00
12839;DHT22;6486;51.034;5.262;2022-09-13T14:42:54;26.40;60.80
12839;DHT22;6486;51.034;5.262;2022-09-13T14:45:32;26.30;61.10
12839;DHT22;6486;51.034;5.262;2022-09-13T14:48:01;26.20;61.80
12839;DHT22;6486;51.034;5.262;2022-09-13T14:50:36;26.20;61.90
12839;DHT22;6486;51.034;5.262;2022-09-13T14:53:05;26.10;62.30
12839;DHT22;6486;51.034;5.262;2022-09-13T14:55:41;26.10;62.70
12839;DHT22;6486;51.034;5.262;2022-09-13T14:58:20;26.00;63.00
12839;DHT22;6486;51.034;5.262;2022-09-13T15:00:58;26.00;63.40
12839;DHT22;6486;51.034;5.262;2022-09-13T15:03:24;26.00;63.90
12839;DHT22;6486;51.034;5.262;2022-09-13T15:05:55;25.90;64.20
12839;DHT22;6486;51.034;5.262;2022-09-13T15:08:47;25.90;64.50
12839;DHT22;6486;51.034;5.262;2022-09-13T15:11:29;25.90;64.90
12839;DHT22;6486;51.034;5.262;2022-09-13T15:17:09;25.90;65.10
12839;DHT22;6486;51.034;5.262;2022-09-13T15:19:40;25.80;65.20
12839;DHT22;6486;51.034;5.262;2022-09-13T15:24:45;25.70;65.70
12839;DHT22;6486;51.034;5.262;2022-09-13T15:27:26;25.60;65.90
12839;DHT22;6486;51.034;5.262;2022-09-13T15:30:00;25.60;66.30
12839;DHT22;6486;51.034;5.262;2022-09-13T15:32:34;25.60;66.40
12839;DHT22;6486;51.034;5.262;2022-09-13T15:35:17;25.60;66.50
12839;DHT22;6486;51.034;5.262;2022-09-13T15:37:46;25.50;66.60
12839;DHT22;6486;51.034;5.262;2022-09-13T15:40:27;25.50;66.60
12839;DHT22;6486;51.034;5.262;2022-09-13T15:42:53;25.50;66.70
12839;DHT22;6486;51.034;5.262;2022-09-13T15:45:20;25.40;66.80
12839;DHT22;6486;51.034;5.262;2022-09-13T15:47:48;25.40;67.10
12839;DHT22;6486;51.034;5.262;2022-09-13T15:50:24;25.30;67.30
12839;DHT22;6486;51.034;5.262;2022-09-13T15:52:51;25.20;67.70
12839;DHT22;6486;51.034;5.262;2022-09-13T15:55:17;25.10;68.00
12839;DHT22;6486;51.034;5.262;2022-09-13T15:57:43;25.00;68.20
12839;DHT22;6486;51.034;5.262;2022-09-13T16:00:22;25.00;68.50
12839;DHT22;6486;51.034;5.262;2022-09-13T16:02:48;24.90;68.80
12839;DHT22;6486;51.034;5.262;2022-09-13T16:05:14;24.90;69.00
12839;DHT22;6486;51.034;5.262;2022-09-13T16:07:40;24.90;69.20
12839;DHT22;6486;51.034;5.262;2022-09-13T16:10:19;24.80;69.40
12839;DHT22;6486;51.034;5.262;2022-09-13T16:12:46;24.80;69.60
12839;DHT22;6486;51.034;5.262;2022-09-13T16:15:12;24.80;69.80
12839;DHT22;6486;51.034;5.262;2022-09-13T16:17:39;24.70;69.80
12839;DHT22;6486;51.034;5.262;2022-09-13T16:20:06;24.70;69.90
12839;DHT22;6486;51.034;5.262;2022-09-13T16:22:33;24.70;70.00
12839;DHT22;6486;51.034;5.262;2022-09-13T16:24:58;24.60;70.10
12839;DHT22;6486;51.034;5.262;2022-09-13T16:27:24;24.50;70.30
12839;DHT22;6486;51.034;5.262;2022-09-13T16:29:52;24.50;70.70
12839;DHT22;6486;51.034;5.262;2022-09-13T16:32:17;24.40;71.00
12839;DHT22;6486;51.034;5.262;2022-09-13T16:34:43;24.40;71.30
12839;DHT22;6486;51.034;5.262;2022-09-13T16:37:13;24.40;71.50
12839;DHT22;6486;51.034;5.262;2022-09-13T16:39:39;24.40;71.80
12839;DHT22;6486;51.034;5.262;2022-09-13T16:42:05;24.40;71.90
12839;DHT22;6486;51.034;5.262;2022-09-13T16:44:31;24.30;71.80
12839;DHT22;6486;51.034;5.262;2022-09-13T16:46:56;24.20;71.80
12839;DHT22;6486;51.034;5.262;2022-09-13T16:49:23;24.20;72.00
12839;DHT22;6486;51.034;5.262;2022-09-13T16:51:48;24.20;72.10
12839;DHT22;6486;51.034;5.262;2022-09-13T16:54:14;24.10;72.10
12839;DHT22;6486;51.034;5.262;2022-09-13T16:56:40;24.10;72.30
12839;DHT22;6486;51.034;5.262;2022-09-13T16:59:05;24.00;72.30
12839;DHT22;6486;51.034;5.262;2022-09-13T17:01:31;24.00;72.40
12839;DHT22;6486;51.034;5.262;2022-09-13T17:03:57;24.00;72.40
12839;DHT22;6486;51.034;5.262;2022-09-13T17:06:24;23.90;72.60
12839;DHT22;6486;51.034;5.262;2022-09-13T17:08:59;23.90;72.80
12839;DHT22;6486;51.034;5.262;2022-09-13T17:11:28;23.90;73.20
12839;DHT22;6486;51.034;5.262;2022-09-13T17:13:54;23.90;73.30
12839;DHT22;6486;51.034;5.262;2022-09-13T17:16:29;23.80;73.60
12839;DHT22;6486;51.034;5.262;2022-09-13T17:18:57;23.70;73.80
12839;DHT22;6486;51.034;5.262;2022-09-13T17:21:24;23.70;74.10
12839;DHT22;6486;51.034;5.262;2022-09-13T17:23:50;23.60;74.20
12839;DHT22;6486;51.034;5.262;2022-09-13T17:26:15;23.60;74.50
12839;DHT22;6486;51.034;5.262;2022-09-13T17:28:41;23.60;74.50
12839;DHT22;6486;51.034;5.262;2022-09-13T17:31:07;23.60;74.70
12839;DHT22;6486;51.034;5.262;2022-09-13T17:33:33;23.60;75.40
12839;DHT22;6486;51.034;5.262;2022-09-13T17:36:00;23.60;74.80
12839;DHT22;6486;51.034;5.262;2022-09-13T17:38:26;23.60;74.90
12839;DHT22;6486;51.034;5.262;2022-09-13T17:41:06;23.60;75.60
12839;DHT22;6486;51.034;5.262;2022-09-13T17:43:34;23.60;75.10
12839;DHT22;6486;51.034;5.262;2022-09-13T17:46:13;23.50;75.00
12839;DHT22;6486;51.034;5.262;2022-09-13T17:48:40;23.50;75.10
12839;DHT22;6486;51.034;5.262;2022-09-13T17:51:09;23.50;75.10
12839;DHT22;6486;51.034;5.262;2022-09-13T17:53:54;23.50;75.00
12839;DHT22;6486;51.034;5.262;2022-09-13T17:56:26;23.40;75.00
12839;DHT22;6486;51.034;5.262;2022-09-13T17:58:55;23.30;74.90
12839;DHT22;6486;51.034;5.262;2022-09-13T18:01:20;23.30;75.00
12839;DHT22;6486;51.034;5.262;2022-09-13T18:03:46;23.20;74.90
12839;DHT22;6486;51.034;5.262;2022-09-13T18:06:12;23.20;75.00
12839;DHT22;6486;51.034;5.262;2022-09-13T18:08:41;23.10;75.00
12839;DHT22;6486;51.034;5.262;2022-09-13T18:11:10;23.10;75.00
12839;DHT22;6486;51.034;5.262;2022-09-13T18:13:36;23.00;75.00
12839;DHT22;6486;51.034;5.262;2022-09-13T18:16:06;23.00;75.00
12839;DHT22;6486;51.034;5.262;2022-09-13T18:18:34;23.00;75.20
12839;DHT22;6486;51.034;5.262;2022-09-13T18:21:00;23.00;75.20
12839;DHT22;6486;51.034;5.262;2022-09-13T18:23:25;23.00;75.30
12839;DHT22;6486;51.034;5.262;2022-09-13T18:26:09;22.90;75.20
12839;DHT22;6486;51.034;5.262;2022-09-13T18:28:35;22.90;75.40
12839;DHT22;6486;51.034;5.262;2022-09-13T18:31:03;22.90;75.40
12839;DHT22;6486;51.034;5.262;2022-09-13T18:33:34;22.90;76.10
12839;DHT22;6486;51.034;5.262;2022-09-13T18:36:02;22.90;75.50
12839;DHT22;6486;51.034;5.262;2022-09-13T18:38:34;22.80;75.50
12839;DHT22;6486;51.034;5.262;2022-09-13T18:41:12;22.80;75.60
12839;DHT22;6486;51.034;5.262;2022-09-13T18:43:39;22.80;75.80
12839;DHT22;6486;51.034;5.262;2022-09-13T18:46:08;22.80;75.90
12839;DHT22;6486;51.034;5.262;2022-09-13T18:48:38;22.80;76.00
12839;DHT22;6486;51.034;5.262;2022-09-13T18:51:05;22.70;75.90
12839;DHT22;6486;51.034;5.262;2022-09-13T18:53:33;22.70;76.00
12839;DHT22;6486;51.034;5.262;2022-09-13T18:56:01;22.70;76.00
12839;DHT22;6486;51.034;5.262;2022-09-13T18:58:29;22.70;76.00
12839;DHT22;6486;51.034;5.262;2022-09-13T19:01:03;22.70;76.10
12839;DHT22;6486;51.034;5.262;2022-09-13T19:03:29;22.60;76.20
12839;DHT22;6486;51.034;5.262;2022-09-13T19:06:10;22.60;76.40
12839;DHT22;6486;51.034;5.262;2022-09-13T19:08:36;22.50;76.50
12839;DHT22;6486;51.034;5.262;2022-09-13T19:11:02;22.50;76.60
12839;DHT22;6486;51.034;5.262;2022-09-13T19:13:29;22.50;76.60
12839;DHT22;6486;51.034;5.262;2022-09-13T19:15:59;22.50;76.60
12839;DHT22;6486;51.034;5.262;2022-09-13T19:18:26;22.50;76.70